Fredericksville, Pennsylvania
Current Conditions -  °F | °C
As of 1:35 AM on Thursday 27 Nov 2014 (Local Time) from KXLL Reporting Station
Overcast Overcast  
Wind Chill: 34°   Ceiling: 4600
Heat Index: 34°   Visibility: 10mi
Dew Point: 32°   Wind: 3mph
Humidity: 93%   Direction: 250°WSW
Pressure: 29.94"   Gusts: NA
Location:  40.4939°N, 75.6842°W
Report Text: KXLL 270635Z AUTO 25003KT 10SM SCT020 OVC046 01/00 A2994 RMK AO2
Loading
Personal Weather Stations






























Interactive Weather Map New forecast layout! Learn more

10-Day Weather Forecast

Advertisements
Track Severe Weather on mobile